Terminal Aerodrome Forecast
Issued by NWS Twin Cities, MN

Home | Current Version | Previous Version | Text Only | Print | Product List | Glossary On
Versions: 1 2 3 4 5 6 7 8 9 10 11 12 13 14 15 16 17 18 19 20 21 22 23 24
343
FTUS43 KMPX 262342
TAFMSP
TAF
KMSP 262342Z 2700/2806 33013G19KT P6SM FEW070
     FM270600 26005KT P6SM SKC
     FM271200 25008KT P6SM SCT120
     FM271500 31012G20KT P6SM SCT120
     FM271900 32020G32KT P6SM SCT050
     FM280000 35015G22KT P6SM SCT050=

USA.gov is the U.S. government's official web portal to all federal, state and local government web resources and services.